Time;durP1;ratioP1;P1;durP2;ratioP2;P2;SDS_P1;SDS_P2;PMS_P1;PMS_P2;Temp;Humidity;BMP_temperature;BMP_pressure;BME280_temperature;BME280_humidity;BME280_pressure;Samples;Min_cycle;Max_cycle;Signal;HPM_P1;HPM_P2
2020/12/02 00:01:51;;;;;;;123.47;21.30;;;2.30;86.50;;;;;;5076717;28;20047;-64
2020/12/02 00:04:19;;;;;;;114.82;21.65;;;2.30;86.50;;;;;;5075594;28;20020;-64
2020/12/02 00:06:45;;;;;;;125.43;22.15;;;2.30;86.50;;;;;;5070983;28;20550;-64
2020/12/02 00:09:14;;;;;;;126.72;22.20;;;2.30;86.50;;;;;;5056783;28;20029;-64
2020/12/02 00:11:41;;;;;;;127.28;21.65;;;2.30;86.50;;;;;;5075723;28;20025;-64
2020/12/02 00:14:11;;;;;;;136.38;21.88;;;2.30;86.50;;;;;;5075209;28;20028;-64
2020/12/02 00:16:37;;;;;;;113.38;21.38;;;2.30;86.40;;;;;;5055110;28;20493;-66
2020/12/02 00:19:03;;;;;;;114.60;21.02;;;2.30;86.50;;;;;;5055021;28;20039;-64
2020/12/02 00:21:32;;;;;;;108.32;21.02;;;2.30;86.50;;;;;;5074301;28;20028;-64
2020/12/02 00:23:58;;;;;;;100.38;21.42;;;2.30;86.50;;;;;;5075200;28;20040;-64
2020/12/02 00:26:24;;;;;;;113.80;22.40;;;2.40;86.50;;;;;;5073946;28;20047;-64
2020/12/02 00:28:51;;;;;;;118.75;21.35;;;2.30;86.50;;;;;;5075436;28;20016;-64
2020/12/02 00:31:18;;;;;;;115.55;20.83;;;2.30;86.50;;;;;;5074025;28;20119;-65
2020/12/02 00:33:44;;;;;;;107.28;21.05;;;2.30;86.60;;;;;;5075237;28;20477;-66
2020/12/02 00:36:10;;;;;;;109.95;21.00;;;2.40;86.60;;;;;;5074838;28;20451;-64
2020/12/02 00:38:36;;;;;;;107.72;21.30;;;2.30;86.50;;;;;;5074643;28;20032;-64
2020/12/02 00:41:02;;;;;;;125.55;23.88;;;2.40;86.60;;;;;;5056113;28;20032;-64
2020/12/02 00:43:30;;;;;;;116.00;21.88;;;2.40;87.10;;;;;;5075132;28;20346;-64
2020/12/02 00:45:58;;;;;;;113.30;22.05;;;2.30;86.60;;;;;;5074481;28;20052;-64
2020/12/02 00:48:26;;;;;;;109.85;20.83;;;2.40;86.60;;;;;;5056955;28;20029;-64
2020/12/02 00:50:52;;;;;;;113.38;22.73;;;2.40;86.70;;;;;;5074504;28;20086;-64
2020/12/02 00:53:25;;;;;;;110.28;21.15;;;2.40;86.70;;;;;;5074510;28;20041;-64
2020/12/02 00:55:51;;;;;;;106.75;21.73;;;2.40;86.60;;;;;;5074619;28;20040;-64
2020/12/02 00:58:47;;;;;;;106.85;21.55;;;2.40;86.70;;;;;;5074936;28;20024;-65
2020/12/02 01:01:16;;;;;;;85.15;20.52;;;2.40;86.70;;;;;;5073302;28;20029;-66
2020/12/02 01:03:42;;;;;;;93.50;20.88;;;2.40;86.60;;;;;;5074701;28;20032;-66
2020/12/02 01:06:10;;;;;;;87.18;19.30;;;2.40;86.60;;;;;;5069438;28;20082;-66
2020/12/02 01:08:38;;;;;;;77.50;19.58;;;2.40;86.60;;;;;;5074406;28;20031;-66
2020/12/02 01:11:13;;;;;;;77.00;18.65;;;2.40;86.60;;;;;;5074000;28;20029;-65
2020/12/02 01:13:39;;;;;;;74.18;17.50;;;2.40;86.60;;;;;;5074435;28;20664;-65
2020/12/02 01:16:11;;;;;;;70.05;18.15;;;2.40;86.60;;;;;;5074286;28;20310;-64
2020/12/02 01:18:37;;;;;;;76.05;18.48;;;2.40;86.70;;;;;;5074186;28;20028;-65
2020/12/02 01:21:06;;;;;;;80.43;18.48;;;2.40;86.60;;;;;;5073538;28;20121;-64
2020/12/02 01:23:35;;;;;;;74.35;17.52;;;2.40;86.80;;;;;;5073968;28;20159;-64
2020/12/02 01:26:02;;;;;;;64.80;17.52;;;2.40;86.70;;;;;;5088343;28;20074;-64
2020/12/02 01:28:31;;;;;;;71.03;17.85;;;2.40;86.60;;;;;;5091434;28;20054;-64
2020/12/02 01:30:59;;;;;;;73.63;17.95;;;2.40;86.60;;;;;;5073405;28;20029;-64
2020/12/02 01:33:25;;;;;;;66.43;17.73;;;2.40;86.70;;;;;;5073743;28;20024;-64
2020/12/02 01:35:52;;;;;;;68.53;16.80;;;2.50;86.60;;;;;;5075783;28;20033;-65
2020/12/02 01:38:27;;;;;;;64.18;18.10;;;2.40;86.50;;;;;;5073977;28;20013;-64
2020/12/02 01:40:53;;;;;;;61.22;17.08;;;2.50;86.60;;;;;;5053704;28;20025;-64
2020/12/02 01:43:19;;;;;;;69.03;17.70;;;2.50;86.50;;;;;;5053868;28;20486;-64
2020/12/02 01:45:49;;;;;;;67.70;18.27;;;2.50;86.50;;;;;;5073076;28;20119;-64
2020/12/02 01:48:27;;;;;;;68.82;18.60;;;2.50;86.60;;;;;;5073881;28;20437;-64
2020/12/02 01:51:15;;;;;;;63.03;18.33;;;2.40;86.60;;;;;;5073013;28;20074;-64
2020/12/02 01:54:05;;;;;;;63.53;18.38;;;2.50;86.60;;;;;;5073198;28;20477;-64
2020/12/02 01:56:39;;;;;;;61.40;17.67;;;2.50;86.60;;;;;;5074010;28;20429;-64
2020/12/02 01:59:26;;;;;;;51.60;16.67;;;2.50;86.60;;;;;;5054902;28;20024;-64
2020/12/02 02:02:20;;;;;;;57.55;17.92;;;2.50;86.50;;;;;;5073601;28;20020;-64
2020/12/02 02:05:05;;;;;;;57.47;17.23;;;2.40;86.50;;;;;;5073224;28;20024;-64
2020/12/02 02:07:31;;;;;;;60.45;18.52;;;2.50;86.50;;;;;;5056913;28;20486;-64
2020/12/02 02:10:06;;;;;;;48.00;16.63;;;2.40;86.40;;;;;;5067298;28;20044;-64
2020/12/02 02:13:00;;;;;;;53.42;16.50;;;2.30;86.40;;;;;;5073644;28;20021;-64
2020/12/02 02:15:46;;;;;;;50.92;16.45;;;2.30;86.50;;;;;;5054851;28;20024;-64
2020/12/02 02:18:18;;;;;;;55.80;18.67;;;2.30;86.60;;;;;;5073236;28;20020;-64
2020/12/02 02:20:49;;;;;;;45.35;16.08;;;2.30;86.60;;;;;;5072689;28;20032;-64
2020/12/02 02:23:17;;;;;;;52.17;16.88;;;2.30;86.60;;;;;;5072668;28;20040;-64
2020/12/02 02:25:58;;;;;;;54.42;17.92;;;2.30;86.70;;;;;;5073132;28;20089;-64
2020/12/02 02:28:26;;;;;;;44.20;16.38;;;2.30;86.70;;;;;;5072861;28;20039;-64
2020/12/02 02:30:52;;;;;;;40.08;15.48;;;2.20;86.60;;;;;;5072705;28;20033;-64
2020/12/02 02:33:18;;;;;;;43.45;16.80;;;2.20;86.50;;;;;;5068345;28;20420;-64
2020/12/02 02:35:43;;;;;;;42.63;16.25;;;2.20;86.60;;;;;;5064700;28;20092;-64
2020/12/02 02:38:09;;;;;;;43.05;16.30;;;2.30;86.70;;;;;;5067156;28;20039;-64
2020/12/02 02:40:35;;;;;;;46.22;17.00;;;2.20;86.60;;;;;;5072358;28;20031;-64
2020/12/02 02:43:04;;;;;;;43.75;17.15;;;2.20;86.70;;;;;;5071675;28;20029;-64
2020/12/02 02:45:30;;;;;;;44.70;17.05;;;2.20;86.70;;;;;;5070350;28;20032;-64
2020/12/02 02:47:57;;;;;;;45.92;16.50;;;2.20;86.70;;;;;;5062535;28;20112;-64
2020/12/02 02:50:24;;;;;;;46.00;18.80;;;2.20;86.70;;;;;;5072005;28;20460;-64
2020/12/02 02:52:50;;;;;;;50.17;18.70;;;2.20;86.70;;;;;;5071930;28;20056;-65
2020/12/02 02:55:21;;;;;;;43.30;17.30;;;2.20;86.70;;;;;;5072003;28;20118;-65
2020/12/02 02:57:47;;;;;;;48.80;17.77;;;2.20;86.70;;;;;;5072514;28;20040;-64
2020/12/02 03:00:18;;;;;;;42.97;17.05;;;2.20;86.70;;;;;;5072171;28;20028;-64
2020/12/02 03:02:44;;;;;;;43.95;17.35;;;2.20;86.60;;;;;;5054215;28;20082;-64
2020/12/02 03:05:10;;;;;;;49.53;18.05;;;2.20;86.70;;;;;;5072307;28;20037;-64
2020/12/02 03:07:39;;;;;;;40.10;16.50;;;2.20;86.80;;;;;;5072271;28;20020;-64
2020/12/02 03:10:05;;;;;;;42.20;17.83;;;2.10;86.70;;;;;;5071434;28;20041;-64
2020/12/02 03:12:31;;;;;;;44.90;17.63;;;2.20;86.70;;;;;;5072473;28;20382;-64
2020/12/02 03:14:57;;;;;;;40.95;17.55;;;2.20;86.70;;;;;;5072638;28;20025;-64
2020/12/02 03:17:24;;;;;;;43.58;17.45;;;2.10;86.70;;;;;;5071669;28;20699;-65
2020/12/02 03:19:54;;;;;;;39.22;16.95;;;2.10;86.70;;;;;;5071865;28;20035;-64
2020/12/02 03:22:24;;;;;;;44.35;18.25;;;2.10;86.60;;;;;;5072726;28;20409;-65
2020/12/02 03:24:53;;;;;;;45.38;17.63;;;2.10;86.70;;;;;;5071752;28;20104;-64
2020/12/02 03:27:19;;;;;;;43.65;17.23;;;2.10;86.70;;;;;;5051295;28;20079;-64
2020/12/02 03:29:45;;;;;;;48.10;18.25;;;2.10;86.70;;;;;;5052018;28;20029;-64
2020/12/02 03:32:10;;;;;;;42.38;17.88;;;2.10;86.70;;;;;;5070595;28;20044;-64
2020/12/02 03:34:36;;;;;;;40.30;15.80;;;2.10;86.60;;;;;;5072439;28;20032;-64
2020/12/02 03:37:01;;;;;;;31.80;14.43;;;2.10;86.60;;;;;;5071730;28;20033;-64
2020/12/02 03:39:27;;;;;;;34.65;16.08;;;2.10;86.40;;;;;;5071910;28;20093;-64
2020/12/02 03:41:52;;;;;;;38.17;16.73;;;2.10;86.50;;;;;;5072132;28;20113;-64
2020/12/02 03:44:18;;;;;;;37.78;16.20;;;2.10;86.60;;;;;;5071967;28;20028;-64
2020/12/02 03:46:44;;;;;;;32.78;14.73;;;2.10;86.60;;;;;;5072035;28;20384;-64
2020/12/02 03:49:09;;;;;;;31.92;14.65;;;2.10;86.50;;;;;;5052250;28;20033;-64
2020/12/02 03:51:36;;;;;;;32.80;14.80;;;2.10;86.50;;;;;;5063591;28;20033;-64
2020/12/02 03:54:03;;;;;;;33.80;14.23;;;2.10;86.50;;;;;;5071479;28;20044;-65
2020/12/02 03:56:29;;;;;;;30.80;14.40;;;2.10;86.50;;;;;;5072337;28;20032;-64
2020/12/02 03:58:54;;;;;;;32.67;13.95;;;2.10;86.50;;;;;;5072252;28;20029;-64
2020/12/02 04:01:21;;;;;;;31.17;14.00;;;2.10;86.50;;;;;;5068973;28;20112;-64
2020/12/02 04:03:47;;;;;;;25.45;12.90;;;2.00;86.50;;;;;;5070920;28;20024;-64
2020/12/02 04:06:15;;;;;;;28.38;14.13;;;2.00;86.50;;;;;;5072082;28;20029;-64
2020/12/02 04:08:42;;;;;;;27.33;13.07;;;2.10;86.50;;;;;;5071871;28;20052;-65
2020/12/02 04:11:09;;;;;;;27.92;12.50;;;2.00;86.50;;;;;;5071467;28;20024;-64
2020/12/02 04:13:35;;;;;;;25.67;11.85;;;2.00;86.50;;;;;;5071427;28;20036;-64
2020/12/02 04:16:01;;;;;;;26.75;12.50;;;2.00;86.50;;;;;;5071998;28;20039;-64
2020/12/02 04:18:27;;;;;;;26.85;12.93;;;2.00;86.40;;;;;;5053227;28;20039;-64
2020/12/02 04:20:53;;;;;;;26.48;12.77;;;2.00;86.40;;;;;;5071472;28;20119;-64
2020/12/02 04:23:18;;;;;;;27.85;13.60;;;2.00;86.50;;;;;;5071519;28;20039;-64
2020/12/02 04:25:44;;;;;;;23.33;12.07;;;2.00;86.50;;;;;;5072105;28;20475;-65
2020/12/02 04:28:10;;;;;;;28.45;13.48;;;2.00;86.50;;;;;;5071713;28;20107;-64
2020/12/02 04:30:36;;;;;;;26.17;12.98;;;2.00;86.50;;;;;;5071302;28;20032;-65
2020/12/02 04:33:01;;;;;;;24.75;12.52;;;2.00;86.50;;;;;;5059872;28;20090;-64
2020/12/02 04:35:27;;;;;;;32.53;14.48;;;2.00;86.40;;;;;;5051397;28;20029;-65
2020/12/02 04:37:53;;;;;;;22.70;12.50;;;2.00;86.40;;;;;;5065374;28;20036;-64
2020/12/02 04:40:31;;;;;;;29.58;14.00;;;2.00;86.30;;;;;;5074950;28;20055;-64
2020/12/02 04:43:17;;;;;;;26.20;12.85;;;2.00;86.40;;;;;;5075102;28;20178;-64
2020/12/02 04:45:43;;;;;;;25.95;12.88;;;2.00;86.40;;;;;;5056906;28;20040;-65
2020/12/02 04:48:13;;;;;;;25.83;13.48;;;2.00;86.20;;;;;;5063577;28;20058;-64
2020/12/02 04:50:39;;;;;;;27.10;12.90;;;2.00;86.20;;;;;;5060447;28;20062;-66
2020/12/02 04:53:17;;;;;;;26.75;13.63;;;2.00;86.30;;;;;;5074278;28;20115;-66
2020/12/02 04:55:45;;;;;;;26.40;13.10;;;2.00;86.20;;;;;;5075002;28;20162;-66
2020/12/02 04:58:23;;;;;;;25.10;12.68;;;2.00;86.30;;;;;;5074839;28;20060;-67
2020/12/02 05:00:49;;;;;;;28.45;13.32;;;2.00;86.30;;;;;;5074421;28;20108;-66
2020/12/02 05:03:16;;;;;;;23.27;11.93;;;2.00;86.20;;;;;;5061074;28;20198;-67
2020/12/02 05:05:43;;;;;;;26.90;13.23;;;2.00;86.20;;;;;;5063104;28;20063;-66
2020/12/02 05:08:20;;;;;;;27.50;13.20;;;2.00;86.20;;;;;;5088125;28;20028;-64
2020/12/02 05:10:46;;;;;;;27.40;13.40;;;2.00;86.20;;;;;;5085866;28;20029;-64
2020/12/02 05:13:12;;;;;;;25.83;12.55;;;2.00;86.10;;;;;;5074787;28;20029;-63
2020/12/02 05:15:38;;;;;;;24.02;13.02;;;2.00;86.10;;;;;;5074330;28;20139;-64
2020/12/02 05:18:18;;;;;;;24.58;13.27;;;2.00;86.10;;;;;;5074378;28;20484;-65
2020/12/02 05:21:00;;;;;;;26.95;14.00;;;2.00;86.20;;;;;;5074118;28;20028;-64
2020/12/02 05:23:27;;;;;;;27.25;14.00;;;2.00;86.10;;;;;;5074016;28;20021;-64
2020/12/02 05:26:00;;;;;;;24.15;13.70;;;2.00;86.10;;;;;;5073370;28;20024;-64
2020/12/02 05:28:29;;;;;;;27.90;14.57;;;2.00;86.10;;;;;;5074390;28;20024;-64
2020/12/02 05:31:00;;;;;;;27.00;13.93;;;2.00;86.10;;;;;;5055202;28;20040;-64
2020/12/02 05:33:29;;;;;;;29.20;14.43;;;2.00;86.10;;;;;;5074242;28;20032;-64
2020/12/02 05:36:04;;;;;;;27.75;15.18;;;2.00;86.10;;;;;;5072120;28;20074;-64
2020/12/02 05:38:36;;;;;;;28.08;14.23;;;2.00;86.20;;;;;;5074589;28;20396;-64
2020/12/02 05:41:05;;;;;;;29.77;14.73;;;2.00;86.10;;;;;;5072644;28;20028;-66
2020/12/02 05:43:48;;;;;;;28.90;14.98;;;2.00;86.20;;;;;;5054372;28;20064;-64
2020/12/02 05:46:18;;;;;;;;;;;2.00;86.20;;;;;;5073569;28;20103;-64
2020/12/02 05:48:43;;;;;;;28.00;14.13;;;2.00;86.10;;;;;;5060659;28;19909;-64
2020/12/02 05:51:18;;;;;;;29.40;14.40;;;2.10;86.00;;;;;;5074941;28;20090;-64
2020/12/02 05:53:57;;;;;;;30.65;14.48;;;2.00;86.00;;;;;;5070080;28;20032;-64
2020/12/02 05:56:23;;;;;;;32.72;15.38;;;2.10;86.10;;;;;;5072990;28;20067;-64
2020/12/02 05:58:49;;;;;;;33.28;15.70;;;2.10;86.10;;;;;;5073565;28;20451;-64
2020/12/02 06:01:21;;;;;;;29.92;14.27;;;2.00;85.90;;;;;;5072541;28;20032;-64
2020/12/02 06:03:51;;;;;;;29.05;14.02;;;2.00;86.00;;;;;;5073292;28;20033;-64
2020/12/02 06:06:16;;;;;;;31.10;15.20;;;2.10;86.00;;;;;;5072659;28;20037;-64
2020/12/02 06:08:46;;;;;;;29.65;15.05;;;2.10;86.00;;;;;;5073638;28;20041;-64
2020/12/02 06:11:17;;;;;;;33.00;16.73;;;2.00;86.00;;;;;;5073278;28;20099;-64
2020/12/02 06:13:50;;;;;;;28.27;14.07;;;2.10;86.00;;;;;;5073037;28;20040;-65
2020/12/02 06:16:28;;;;;;;32.40;16.20;;;2.10;85.90;;;;;;5072902;28;20032;-64
2020/12/02 06:18:53;;;;;;;37.15;16.35;;;2.00;85.80;;;;;;5070279;28;20063;-64
2020/12/02 06:21:36;;;;;;;37.50;16.58;;;2.00;85.80;;;;;;5072250;28;20112;-64
2020/12/02 06:24:01;;;;;;;35.45;16.88;;;2.00;85.90;;;;;;5072726;28;20115;-65
2020/12/02 06:26:46;;;;;;;33.10;16.98;;;2.00;85.90;;;;;;5068230;28;20545;-65
2020/12/02 06:29:31;;;;;;;34.40;16.75;;;2.00;85.90;;;;;;5058525;28;20059;-64
2020/12/02 06:32:22;;;;;;;36.45;16.42;;;2.00;85.90;;;;;;5054874;28;20025;-65
2020/12/02 06:34:49;;;;;;;35.40;17.40;;;2.00;85.80;;;;;;5064952;28;20047;-65
2020/12/02 06:37:26;;;;;;;38.65;17.95;;;2.10;86.00;;;;;;5072003;28;20021;-64
2020/12/02 06:39:57;;;;;;;37.15;17.52;;;2.10;86.00;;;;;;5072391;28;20476;-65
2020/12/02 06:42:32;;;;;;;35.00;16.77;;;2.10;85.90;;;;;;5072747;28;20053;-65
2020/12/02 06:45:16;;;;;;;41.30;18.48;;;2.10;85.80;;;;;;5054039;28;20030;-65
2020/12/02 06:47:55;;;;;;;37.00;18.08;;;2.20;85.90;;;;;;5071616;28;20044;-65
2020/12/02 06:50:28;;;;;;;44.47;17.67;;;2.20;85.80;;;;;;5072443;28;20380;-65
2020/12/02 06:52:56;;;;;;;40.63;17.40;;;2.30;85.80;;;;;;5071681;28;20039;-65
2020/12/02 06:55:27;;;;;;;39.78;17.08;;;2.30;85.70;;;;;;5063339;28;20108;-65
2020/12/02 06:58:01;;;;;;;41.05;18.00;;;2.30;85.70;;;;;;5052611;28;20021;-65
2020/12/02 07:00:30;;;;;;;44.53;18.48;;;2.40;85.70;;;;;;5067091;28;20032;-65
2020/12/02 07:03:02;;;;;;;43.78;18.50;;;2.40;85.60;;;;;;5071971;28;20103;-65
2020/12/02 07:05:35;;;;;;;36.53;16.65;;;2.40;85.50;;;;;;5071895;28;20024;-65
2020/12/02 07:08:27;;;;;;;41.78;18.42;;;2.40;85.40;;;;;;5072221;28;20021;-65
2020/12/02 07:11:04;;;;;;;30.93;13.63;;;2.40;85.40;;;;;;5066401;28;20049;-65
2020/12/02 07:13:34;;;;;;;40.63;18.15;;;2.40;85.40;;;;;;5071893;28;20287;-65
2020/12/02 07:15:59;;;;;;;43.60;17.88;;;2.40;85.40;;;;;;5071336;28;20096;-65
2020/12/02 07:18:26;;;;;;;39.55;17.35;;;2.40;85.40;;;;;;5081242;28;20044;-65
2020/12/02 07:21:30;;;;;;;43.13;18.10;;;2.40;85.40;;;;;;5071222;28;20437;-65
2020/12/02 07:23:58;;;;;;;41.00;17.42;;;2.40;85.40;;;;;;5054221;28;20487;-67
2020/12/02 07:26:25;;;;;;;39.95;17.42;;;2.40;85.30;;;;;;5071729;28;20108;-66
2020/12/02 07:29:14;;;;;;;47.95;19.27;;;2.40;85.30;;;;;;5070994;28;20028;-68
2020/12/02 07:31:40;;;;;;;46.00;17.95;;;2.30;85.20;;;;;;5050040;28;20120;-65
2020/12/02 07:34:22;;;;;;;39.88;17.65;;;2.30;85.30;;;;;;5072389;28;20512;-65
2020/12/02 07:36:48;;;;;;;46.22;18.98;;;2.30;85.90;;;;;;5065486;28;20028;-65
2020/12/02 07:39:22;;;;;;;44.00;18.40;;;2.40;85.30;;;;;;5071349;28;20443;-64
2020/12/02 07:42:10;;;;;;;52.55;19.77;;;2.30;85.30;;;;;;5068510;28;20039;-65
2020/12/02 07:44:47;;;;;;;43.83;18.67;;;2.30;85.30;;;;;;5071635;28;20043;-65
2020/12/02 07:47:16;;;;;;;51.97;20.13;;;2.30;85.30;;;;;;5071510;28;20090;-65
2020/12/02 07:49:51;;;;;;;45.45;18.05;;;2.30;85.40;;;;;;5071414;28;20060;-65
2020/12/02 07:52:26;;;;;;;40.53;17.90;;;2.30;85.30;;;;;;5071484;28;20561;-65
2020/12/02 07:54:56;;;;;;;42.35;17.05;;;2.30;85.30;;;;;;5070345;28;20507;-65
2020/12/02 07:57:25;;;;;;;45.05;17.92;;;2.30;85.20;;;;;;5071331;28;20108;-65
2020/12/02 08:00:13;;;;;;;48.60;18.50;;;2.20;85.20;;;;;;5070938;28;20032;-65
2020/12/02 08:02:42;;;;;;;49.50;18.13;;;2.20;85.30;;;;;;5072533;28;20402;-65
2020/12/02 08:05:27;;;;;;;42.83;17.35;;;2.20;85.40;;;;;;5071247;28;20056;-65
2020/12/02 08:08:00;;;;;;;42.75;16.73;;;2.20;85.50;;;;;;5071145;28;20036;-65
2020/12/02 08:10:28;;;;;;;36.72;15.52;;;2.20;85.30;;;;;;5071752;28;20016;-68
2020/12/02 08:12:54;;;;;;;39.92;15.60;;;2.20;85.30;;;;;;5055392;28;20029;-66
2020/12/02 08:15:19;;;;;;;38.10;15.43;;;2.20;85.30;;;;;;5055910;28;20017;-67
2020/12/02 08:18:06;;;;;;;39.38;14.80;;;2.20;85.30;;;;;;5055157;28;20067;-67
2020/12/02 08:20:34;;;;;;;32.83;13.05;;;2.10;85.10;;;;;;5055268;28;20025;-67
2020/12/02 08:23:21;;;;;;;31.30;13.10;;;2.20;85.10;;;;;;5055148;28;20024;-67
2020/12/02 08:26:16;;;;;;;33.65;13.18;;;2.10;85.10;;;;;;5068922;28;20027;-67
2020/12/02 08:28:43;;;;;;;34.65;14.27;;;2.10;85.30;;;;;;5075349;28;20459;-67
2020/12/02 08:31:17;;;;;;;36.50;14.32;;;2.10;85.30;;;;;;5075220;28;20016;-67
2020/12/02 08:34:23;;;;;;;34.55;14.93;;;2.10;85.30;;;;;;5075109;28;20063;-65
2020/12/02 08:37:08;;;;;;;37.03;14.25;;;2.10;85.40;;;;;;5076072;28;20067;-67
2020/12/02 08:39:34;;;;;;;42.85;16.35;;;2.10;85.20;;;;;;5070806;28;20032;-67
2020/12/02 08:42:00;;;;;;;42.58;16.13;;;2.20;85.30;;;;;;5074190;28;20016;-67
2020/12/02 08:44:25;;;;;;;41.08;16.98;;;2.20;85.20;;;;;;5074900;28;20029;-67
2020/12/02 08:46:58;;;;;;;44.70;17.85;;;2.20;85.20;;;;;;5075206;28;20440;-67
2020/12/02 08:49:28;;;;;;;;;;;2.20;85.30;;;;;;5075068;28;20029;-67
2020/12/02 08:51:54;;;;;;;48.40;19.00;;;2.30;85.20;;;;;;5075357;28;19909;-67
2020/12/02 08:54:22;;;;;;;52.22;19.45;;;2.30;85.00;;;;;;5074766;28;20178;-67
2020/12/02 08:56:48;;;;;;;57.72;20.48;;;2.20;84.90;;;;;;5074806;28;20039;-67
2020/12/02 08:59:14;;;;;;;54.88;19.70;;;2.20;85.00;;;;;;5074668;28;20024;-67
2020/12/02 09:01:40;;;;;;;64.25;22.63;;;2.20;85.10;;;;;;5056970;28;20031;-67
2020/12/02 09:04:07;;;;;;;62.08;21.73;;;2.20;85.20;;;;;;5074395;28;20032;-67
2020/12/02 09:06:32;;;;;;;60.05;21.35;;;2.20;85.10;;;;;;5075119;28;20024;-67
2020/12/02 09:08:58;;;;;;;56.80;21.33;;;2.30;85.20;;;;;;5074542;28;20029;-67
2020/12/02 09:11:27;;;;;;;59.83;22.05;;;2.30;85.20;;;;;;5056575;28;20047;-67
2020/12/02 09:13:54;;;;;;;59.75;20.45;;;2.20;85.20;;;;;;5074790;28;20039;-67
2020/12/02 09:16:27;;;;;;;57.88;21.58;;;2.30;85.20;;;;;;5074229;28;20058;-67
2020/12/02 09:18:54;;;;;;;59.97;22.20;;;2.30;85.10;;;;;;5074605;28;20455;-67
2020/12/02 09:21:21;;;;;;;56.00;22.33;;;2.20;85.00;;;;;;5073836;28;20020;-67
2020/12/02 09:23:46;;;;;;;59.30;22.65;;;2.20;85.00;;;;;;5073825;28;20020;-67
2020/12/02 09:26:16;;;;;;;56.30;22.30;;;2.20;85.10;;;;;;5074556;28;20055;-67
2020/12/02 09:28:41;;;;;;;64.65;21.83;;;2.30;85.30;;;;;;5074117;28;20037;-67
2020/12/02 09:31:07;;;;;;;60.55;22.33;;;2.30;85.20;;;;;;5055978;28;20031;-68
2020/12/02 09:33:33;;;;;;;64.18;23.58;;;2.20;85.10;;;;;;5073918;28;20068;-67
2020/12/02 09:35:58;;;;;;;63.47;23.58;;;2.30;85.20;;;;;;5074564;28;20017;-67
2020/12/02 09:38:24;;;;;;;62.40;22.75;;;2.30;85.30;;;;;;5073941;28;20024;-68
2020/12/02 09:40:50;;;;;;;60.95;22.33;;;2.40;85.20;;;;;;5068262;28;20024;-67
2020/12/02 09:43:24;;;;;;;62.33;23.35;;;2.40;85.20;;;;;;5074164;28;20492;-67
2020/12/02 09:45:59;;;;;;;67.70;22.95;;;2.40;85.10;;;;;;5073901;28;20044;-67
2020/12/02 09:48:27;;;;;;;61.17;23.27;;;2.40;85.10;;;;;;5074010;28;20025;-67
2020/12/02 09:50:54;;;;;;;59.75;22.50;;;2.40;85.00;;;;;;5073440;28;20037;-67
2020/12/02 09:53:23;;;;;;;58.08;21.95;;;2.40;84.90;;;;;;5073234;28;20021;-67
2020/12/02 09:55:49;;;;;;;59.33;21.58;;;2.40;85.00;;;;;;5073768;28;20113;-67
2020/12/02 09:58:15;;;;;;;58.30;22.27;;;2.50;84.80;;;;;;5055749;28;20025;-67
2020/12/02 10:00:41;;;;;;;49.53;20.23;;;2.40;84.90;;;;;;5073463;28;20020;-67
2020/12/02 10:03:32;;;;;;;52.80;20.45;;;2.40;84.90;;;;;;5073445;28;20036;-67
2020/12/02 10:06:22;;;;;;;45.95;19.23;;;2.40;84.90;;;;;;5073731;28;20090;-67
2020/12/02 10:09:29;;;;;;;47.92;19.88;;;2.40;85.00;;;;;;5073423;28;20033;-67
2020/12/02 10:12:11;;;;;;;47.15;19.27;;;2.40;85.30;;;;;;5050460;28;20415;-67
2020/12/02 10:14:51;;;;;;;;;;;2.40;84.90;;;;;;5074133;28;20026;-67
2020/12/02 10:17:53;;;;;;;47.88;18.67;;;2.40;84.80;;;;;;5054849;28;19912;-67
2020/12/02 10:20:21;;;;;;;39.78;14.90;;;2.40;84.70;;;;;;5073143;28;20156;-67
2020/12/02 10:23:08;;;;;;;44.58;18.33;;;2.30;84.70;;;;;;5073255;28;20059;-67
2020/12/02 10:25:50;;;;;;;41.33;18.33;;;2.30;84.80;;;;;;5073302;28;20077;-67
2020/12/02 10:28:34;;;;;;;42.63;18.55;;;2.30;84.80;;;;;;5073419;28;20031;-67
2020/12/02 10:31:09;;;;;;;42.63;17.60;;;2.40;84.80;;;;;;5054942;28;20036;-67
2020/12/02 10:33:37;;;;;;;39.50;16.63;;;2.40;84.70;;;;;;5072468;28;20497;-67
2020/12/02 10:36:03;;;;;;;41.63;17.55;;;2.40;84.80;;;;;;5072797;28;20460;-67
2020/12/02 10:38:37;;;;;;;34.60;15.88;;;2.30;84.90;;;;;;5054831;28;20111;-67
2020/12/02 10:41:10;;;;;;;32.92;15.65;;;2.40;84.90;;;;;;5067869;28;20485;-67
2020/12/02 10:43:45;;;;;;;37.10;15.93;;;2.40;84.90;;;;;;5055005;28;20021;-67
2020/12/02 10:46:31;;;;;;;35.63;14.63;;;2.40;84.70;;;;;;5073504;28;20021;-67
2020/12/02 10:49:07;;;;;;;34.65;14.90;;;2.30;84.60;;;;;;5072529;28;20358;-67
2020/12/02 10:51:36;;;;;;;33.30;14.77;;;2.30;84.70;;;;;;5073058;28;20473;-67
2020/12/02 10:54:12;;;;;;;34.88;14.77;;;2.30;84.70;;;;;;5072541;28;20029;-67
2020/12/02 10:56:42;;;;;;;37.70;15.18;;;2.30;84.70;;;;;;5052917;28;20021;-67
2020/12/02 10:59:13;;;;;;;41.17;15.85;;;2.30;84.60;;;;;;5034281;28;20025;-67
2020/12/02 11:01:40;;;;;;;38.55;15.70;;;2.30;84.60;;;;;;5063164;28;20067;-67
2020/12/02 11:04:06;;;;;;;35.78;14.07;;;2.40;84.70;;;;;;5072808;28;20031;-67
2020/12/02 11:06:54;;;;;;;37.53;15.23;;;2.30;84.40;;;;;;5072538;28;20024;-67
2020/12/02 11:09:34;;;;;;;33.67;13.90;;;2.30;84.50;;;;;;5072231;28;20385;-67
2020/12/02 11:12:27;;;;;;;38.00;14.48;;;2.30;84.20;;;;;;5072546;28;20059;-67
2020/12/02 11:15:23;;;;;;;33.70;13.98;;;2.20;84.20;;;;;;5072791;28;20029;-67
2020/12/02 11:18:04;;;;;;;33.35;14.77;;;2.20;84.30;;;;;;5054314;28;20067;-67
2020/12/02 11:21:02;;;;;;;35.72;14.13;;;2.10;84.30;;;;;;5072188;28;20020;-67
2020/12/02 11:23:27;;;;;;;35.65;14.95;;;2.10;84.40;;;;;;5063171;28;20045;-67
2020/12/02 11:26:02;;;;;;;37.03;14.23;;;2.00;84.60;;;;;;5072504;28;20029;-67
2020/12/02 11:28:27;;;;;;;33.17;13.73;;;2.10;84.60;;;;;;5072340;28;20025;-67
2020/12/02 11:31:01;;;;;;;40.97;15.95;;;2.00;84.50;;;;;;5071721;28;20369;-67
2020/12/02 11:34:11;;;;;;;37.22;15.52;;;2.10;84.70;;;;;;5071556;28;20416;-67
2020/12/02 11:37:00;;;;;;;34.38;15.65;;;2.10;84.40;;;;;;5050546;28;20162;-66
2020/12/02 11:39:37;;;;;;;30.92;14.00;;;2.00;84.40;;;;;;5071162;28;20048;-66
2020/12/02 11:42:03;;;;;;;36.65;15.75;;;2.00;84.30;;;;;;5062076;28;20359;-66
2020/12/02 11:44:35;;;;;;;36.83;14.77;;;1.90;84.30;;;;;;5052339;28;20031;-66
2020/12/02 11:47:36;;;;;;;33.83;14.32;;;1.90;84.60;;;;;;5075260;28;20028;-66
2020/12/02 11:50:09;;;;;;;35.75;14.20;;;2.00;84.70;;;;;;5033270;28;20128;-66
2020/12/02 11:52:48;;;;;;;;;;;2.00;84.40;;;;;;5075990;28;20044;-66
2020/12/02 11:55:16;;;;;;;31.35;12.13;;;2.00;84.20;;;;;;5075416;28;20322;-67
2020/12/02 11:57:48;;;;;;;38.85;15.10;;;1.90;84.10;;;;;;5076044;28;20020;-66
2020/12/02 12:00:13;;;;;;;34.03;13.83;;;1.80;84.20;;;;;;5075256;28;20033;-66
2020/12/02 12:03:06;;;;;;;33.20;14.20;;;1.80;84.40;;;;;;5073287;28;20288;-66
2020/12/02 12:05:52;;;;;;;;;;;1.80;84.40;;;;;;5076279;28;20045;-66
2020/12/02 12:08:28;;;;;;;30.02;13.23;;;1.80;84.40;;;;;;5075033;28;19912;-66
2020/12/02 12:10:59;;;;;;;35.47;12.50;;;1.80;84.40;;;;;;5074017;28;20036;-67
2020/12/02 12:13:49;;;;;;;30.75;13.32;;;1.80;84.50;;;;;;5068642;28;20204;-66
2020/12/02 12:16:21;;;;;;;33.25;13.20;;;1.80;84.50;;;;;;5050223;28;20029;-70
2020/12/02 12:18:49;;;;;;;28.42;12.70;;;1.90;84.60;;;;;;5075032;28;20040;-66
2020/12/02 12:21:29;;;;;;;25.33;11.35;;;1.90;84.40;;;;;;5075249;28;20028;-66
2020/12/02 12:24:00;;;;;;;34.17;13.48;;;1.90;84.40;;;;;;5052570;28;20025;-67
2020/12/02 12:26:35;;;;;;;34.80;13.82;;;1.90;84.40;;;;;;5053849;28;20729;-66
2020/12/02 12:29:02;;;;;;;30.77;13.60;;;1.90;84.30;;;;;;5075204;28;20039;-66
2020/12/02 12:31:49;;;;;;;28.60;13.48;;;1.90;84.40;;;;;;5074600;28;20504;-66
2020/12/02 12:34:34;;;;;;;33.47;14.75;;;1.80;84.20;;;;;;5074924;28;20052;-66
2020/12/02 12:37:03;;;;;;;34.72;14.38;;;1.80;84.20;;;;;;5048515;28;20100;-67
2020/12/02 12:39:40;;;;;;;33.00;12.70;;;1.80;84.70;;;;;;5064727;28;20492;-66
2020/12/02 12:42:11;;;;;;;31.85;12.70;;;1.80;84.20;;;;;;5061518;28;20032;-66
2020/12/02 12:44:39;;;;;;;32.03;13.00;;;1.80;84.20;;;;;;5061881;28;20082;-66
2020/12/02 12:47:26;;;;;;;30.27;13.40;;;1.80;84.20;;;;;;5074510;28;20092;-66
2020/12/02 12:49:54;;;;;;;35.38;14.02;;;1.90;84.20;;;;;;5074526;28;20056;-65
2020/12/02 12:52:23;;;;;;;30.60;12.90;;;1.90;84.10;;;;;;5075862;28;20024;-64
2020/12/02 12:54:49;;;;;;;29.27;12.80;;;1.90;84.00;;;;;;5089153;28;20037;-65
2020/12/02 12:57:18;;;;;;;31.35;13.35;;;1.90;83.90;;;;;;5093282;28;20031;-65
2020/12/02 12:59:44;;;;;;;33.15;12.50;;;1.80;83.90;;;;;;5074577;28;20048;-65
2020/12/02 13:02:21;;;;;;;30.92;12.73;;;1.80;83.90;;;;;;5056779;28;20020;-66
2020/12/02 13:04:47;;;;;;;24.02;10.95;;;1.90;84.00;;;;;;5078487;28;20043;-66